createdAt,value
2017-06-05T00:01:21.564Z,100496.56
2017-06-05T00:03:51.408Z,100501.27
2017-06-05T00:06:21.342Z,100502.89
2017-06-05T00:08:51.183Z,100497.20
2017-06-05T00:11:21.080Z,100505.80
2017-06-05T00:13:50.910Z,100498.41
2017-06-05T00:16:20.752Z,100500.92
2017-06-05T00:18:50.615Z,100493.53
2017-06-05T00:21:20.494Z,100494.22
2017-06-05T00:23:50.354Z,100501.18
2017-06-05T00:26:20.350Z,100504.94
2017-06-05T00:28:53.347Z,100500.49
2017-06-05T00:31:23.182Z,100501.34
2017-06-05T00:33:53.053Z,100505.92
2017-06-05T00:36:22.963Z,100509.39
2017-06-05T00:38:52.882Z,100504.13
2017-06-05T00:41:22.721Z,100504.68
2017-06-05T00:43:52.558Z,100505.37
2017-06-05T00:46:22.447Z,100501.86
2017-06-05T00:48:52.280Z,100504.77
2017-06-05T00:51:22.157Z,100501.69
2017-06-05T00:53:52.049Z,100498.95
2017-06-05T00:56:21.908Z,100502.85
2017-06-05T00:58:51.751Z,100507.84
2017-06-05T01:01:21.662Z,100511.23
2017-06-05T01:03:51.539Z,100511.14
2017-06-05T01:06:21.383Z,100510.41
2017-06-05T01:08:51.253Z,100513.62
2017-06-05T01:11:21.094Z,100517.33
2017-06-05T01:13:51.888Z,100516.48
2017-06-05T01:16:21.733Z,100520.33
2017-06-05T01:18:51.643Z,100518.48
2017-06-05T01:21:21.482Z,100521.90
2017-06-05T01:23:51.371Z,100526.13
2017-06-05T01:26:21.249Z,100534.55
2017-06-05T01:28:51.091Z,100528.60
2017-06-05T01:31:20.959Z,100539.84
2017-06-05T01:33:50.814Z,100545.87
2017-06-05T01:36:20.735Z,100548.56
2017-06-05T01:38:50.600Z,100553.02
2017-06-05T01:41:20.543Z,100554.55
2017-06-05T01:43:50.374Z,100557.44
2017-06-05T01:46:20.342Z,100556.95
2017-06-05T01:48:50.209Z,100555.58
2017-06-05T01:51:20.110Z,100554.72
2017-06-05T01:53:49.960Z,100560.39
2017-06-05T01:56:19.860Z,100557.34
2017-06-05T01:58:49.755Z,100549.60
2017-06-05T02:01:19.691Z,100552.88
2017-06-05T02:03:49.549Z,100552.66
2017-06-05T02:06:19.489Z,100557.09
2017-06-05T02:08:49.350Z,100553.68
2017-06-05T02:11:19.343Z,100556.61
2017-06-05T02:13:49.238Z,100547.65
2017-06-05T02:16:19.153Z,100545.94
2017-06-05T02:18:49.020Z,100551.84
2017-06-05T02:21:18.858Z,100549.37
2017-06-05T02:23:48.739Z,100539.72
2017-06-05T02:26:18.595Z,100539.78
2017-06-05T02:28:48.476Z,100538.77
2017-06-05T02:31:18.314Z,100542.59
2017-06-05T02:33:48.200Z,100551.12
2017-06-05T02:36:18.038Z,100553.10
2017-06-05T02:38:47.906Z,100550.22
2017-06-05T02:41:17.790Z,100563.51
2017-06-05T02:43:47.657Z,100560.91
2017-06-05T02:46:17.520Z,100560.24
2017-06-05T02:48:47.361Z,100554.68
2017-06-05T02:51:16.922Z,100558.22
2017-06-05T02:53:46.756Z,100551.77
2017-06-05T02:56:16.645Z,100552.97
2017-06-05T02:58:46.563Z,100549.20
2017-06-05T03:01:16.406Z,100553.98
2017-06-05T03:03:46.268Z,100553.23
2017-06-05T03:06:16.130Z,100551.69
2017-06-05T03:08:46.061Z,100555.50
2017-06-05T03:11:15.910Z,100549.59
2017-06-05T03:13:45.775Z,100540.75
2017-06-05T03:16:15.635Z,100545.34
2017-06-05T03:18:45.476Z,100547.98
2017-06-05T03:21:15.350Z,100546.78
2017-06-05T03:23:45.184Z,100550.40
2017-06-05T03:26:15.086Z,100552.19
2017-06-05T03:28:44.935Z,100546.75
2017-06-05T03:31:14.798Z,100552.08
2017-06-05T03:33:44.659Z,100551.77
2017-06-05T03:36:14.500Z,100547.02
2017-06-05T03:38:44.357Z,100551.95
2017-06-05T03:41:14.573Z,100551.88
2017-06-05T03:43:44.467Z,100552.93
2017-06-05T03:46:14.327Z,100556.39
2017-06-05T03:48:44.195Z,100556.39
2017-06-05T03:51:14.069Z,100557.84
2017-06-05T03:53:43.944Z,100561.72
2017-06-05T03:56:13.840Z,100556.05
2017-06-05T03:58:43.768Z,100564.05
2017-06-05T04:01:13.659Z,100559.34
2017-06-05T04:03:43.493Z,100559.16
2017-06-05T04:06:13.330Z,100561.25
2017-06-05T04:08:43.229Z,100561.29
2017-06-05T04:11:13.086Z,100558.06
2017-06-05T04:13:42.943Z,100559.33
2017-06-05T04:16:12.785Z,100558.28
2017-06-05T04:18:42.651Z,100562.67
2017-06-05T04:21:12.497Z,100554.66
2017-06-05T04:23:42.442Z,100566.45
2017-06-05T04:26:12.280Z,100569.48
2017-06-05T04:28:42.125Z,100570.14
2017-06-05T04:31:11.978Z,100571.31
2017-06-05T04:33:41.819Z,100572.34
2017-06-05T04:36:11.680Z,100578.89
2017-06-05T04:38:41.527Z,100580.94
2017-06-05T04:41:11.419Z,100572.05
2017-06-05T04:43:41.285Z,100572.97
2017-06-05T04:46:11.170Z,100574.80
2017-06-05T04:48:41.145Z,100576.41
2017-06-05T04:51:12.060Z,100585.43
2017-06-05T04:53:41.928Z,100585.57
2017-06-05T04:56:11.813Z,100580.95
2017-06-05T04:58:41.699Z,100585.57
2017-06-05T05:01:11.538Z,100586.77
2017-06-05T05:03:41.400Z,100573.91
2017-06-05T05:06:11.265Z,100570.45
2017-06-05T05:08:41.104Z,100578.27
2017-06-05T05:11:11.043Z,100579.86
2017-06-05T05:13:40.882Z,100573.86
2017-06-05T05:16:10.768Z,100577.59
2017-06-05T05:18:40.605Z,100580.97
2017-06-05T05:21:10.453Z,100580.98
2017-06-05T05:23:40.331Z,100583.73
2017-06-05T05:26:10.531Z,100588.16
2017-06-05T05:28:40.417Z,100584.27
2017-06-05T05:31:10.255Z,100583.68
2017-06-05T05:33:40.161Z,100586.27
2017-06-05T05:36:10.027Z,100591.86
2017-06-05T05:38:39.866Z,100587.88
2017-06-05T05:41:09.731Z,100592.53
2017-06-05T05:43:39.588Z,100589.55
2017-06-05T05:46:09.460Z,100593.14
2017-06-05T05:48:39.316Z,100592.17
2017-06-05T05:51:09.218Z,100590.64
2017-06-05T05:53:39.078Z,100587.58
2017-06-05T05:56:08.962Z,100587.53
2017-06-05T05:58:39.778Z,100592.28
2017-06-05T06:01:09.621Z,100597.51
2017-06-05T06:03:39.490Z,100596.81
2017-06-05T06:06:09.338Z,100607.80
2017-06-05T06:08:39.232Z,100602.50
2017-06-05T06:11:09.071Z,100605.36
2017-06-05T06:13:38.922Z,100600.70
2017-06-05T06:16:08.462Z,100600.96
2017-06-05T06:18:38.327Z,100608.20
2017-06-05T06:21:08.195Z,100607.33
2017-06-05T06:23:38.035Z,100606.35
2017-06-05T06:26:07.908Z,100604.08
2017-06-05T06:28:37.778Z,100598.22
2017-06-05T06:31:07.613Z,100595.49
2017-06-05T06:33:37.545Z,100598.74
2017-06-05T06:36:07.386Z,100600.55
2017-06-05T06:38:37.271Z,100604.27
2017-06-05T06:41:07.112Z,100600.38
2017-06-05T06:43:36.994Z,100607.98
2017-06-05T06:46:06.849Z,100607.55
2017-06-05T06:48:36.681Z,100605.55
2017-06-05T06:51:06.542Z,100599.98
2017-06-05T06:53:36.398Z,100600.77
2017-06-05T06:56:06.270Z,100597.64
2017-06-05T06:58:36.146Z,100596.47
2017-06-05T07:01:06.001Z,100600.35
2017-06-05T07:03:35.861Z,100594.09
2017-06-05T07:06:05.692Z,100596.41
2017-06-05T07:08:35.556Z,100595.97
2017-06-05T07:11:05.394Z,100595.22
2017-06-05T07:13:35.306Z,100590.36
2017-06-05T07:16:05.150Z,100596.28
2017-06-05T07:18:35.090Z,100597.36
2017-06-05T07:21:04.941Z,100591.36
2017-06-05T07:23:34.802Z,100594.42
2017-06-05T07:26:04.668Z,100593.43
2017-06-05T07:28:34.509Z,100590.41
2017-06-05T07:31:04.383Z,100585.28
2017-06-05T07:33:34.219Z,100581.92
2017-06-05T07:36:04.122Z,100586.16
2017-06-05T07:38:33.963Z,100586.53
2017-06-05T07:41:03.827Z,100582.45
2017-06-05T07:43:33.714Z,100582.00
2017-06-05T07:46:03.545Z,100582.05
2017-06-05T07:48:33.425Z,100586.47
2017-06-05T07:51:03.261Z,100580.52
2017-06-05T07:53:33.283Z,100579.66
2017-06-05T07:56:03.119Z,100575.67
2017-06-05T07:58:32.990Z,100584.69
2017-06-05T08:01:02.766Z,100583.38
2017-06-05T08:03:32.426Z,100585.10
2017-06-05T08:06:02.323Z,100577.41
2017-06-05T08:08:32.168Z,100576.17
2017-06-05T08:11:02.053Z,100575.41
2017-06-05T08:13:31.930Z,100576.59
2017-06-05T08:16:01.816Z,100575.73
2017-06-05T08:18:31.678Z,100576.70
2017-06-05T08:21:01.513Z,100582.81
2017-06-05T08:23:31.378Z,100579.06
2017-06-05T08:26:01.287Z,100577.02
2017-06-05T08:28:31.229Z,100576.50
2017-06-05T08:31:01.099Z,100578.26
2017-06-05T08:33:30.947Z,100576.49
2017-06-05T08:36:00.811Z,100568.23
2017-06-05T08:38:30.654Z,100574.84
2017-06-05T08:41:00.524Z,100570.94
2017-06-05T08:43:30.478Z,100577.23
2017-06-05T08:46:00.398Z,100572.36
2017-06-05T08:48:30.242Z,100573.92
2017-06-05T08:51:00.260Z,100571.31
2017-06-05T08:53:30.161Z,100565.87
2017-06-05T08:56:00.032Z,100555.24
2017-06-05T08:58:29.885Z,100559.64
2017-06-05T09:00:59.732Z,100558.33
2017-06-05T09:03:29.602Z,100561.23
2017-06-05T09:06:00.488Z,100550.86
2017-06-05T09:08:30.359Z,100550.92
2017-06-05T09:11:00.203Z,100546.15
2017-06-05T09:13:30.058Z,100545.84
2017-06-05T09:15:59.901Z,100544.77
2017-06-05T09:18:29.874Z,100543.33
2017-06-05T09:20:59.550Z,100539.75
2017-06-05T09:23:29.240Z,100538.53
2017-06-05T09:26:04.514Z,100536.09
2017-06-05T09:28:34.196Z,100532.35
2017-06-05T09:31:04.048Z,100521.63
2017-06-05T09:33:33.919Z,100522.84
2017-06-05T09:36:03.751Z,100526.86
2017-06-05T09:38:33.654Z,100517.03
2017-06-05T09:41:03.493Z,100511.80
2017-06-05T09:43:33.379Z,100516.62
2017-06-05T09:46:03.211Z,100511.71
2017-06-05T09:48:33.060Z,100514.55
2017-06-05T09:51:02.917Z,100516.84
2017-06-05T09:53:32.753Z,100510.75
2017-06-05T09:56:02.612Z,100506.33
2017-06-05T09:58:32.456Z,100505.25
2017-06-05T10:01:02.318Z,100501.70
2017-06-05T10:03:32.165Z,100496.20
2017-06-05T10:06:02.048Z,100495.19
2017-06-05T10:08:31.907Z,100493.36
2017-06-05T10:11:01.774Z,100496.05
2017-06-05T10:13:31.628Z,100485.02
2017-06-05T10:16:01.488Z,100484.53
2017-06-05T10:18:31.332Z,100479.16
2017-06-05T10:21:01.198Z,100476.38
2017-06-05T10:23:31.099Z,100478.17
2017-06-05T10:26:00.974Z,100472.70
2017-06-05T10:28:30.844Z,100475.53
2017-06-05T10:31:00.702Z,100466.30
2017-06-05T10:33:30.556Z,100466.24
2017-06-05T10:36:00.389Z,100459.62
2017-06-05T10:38:30.251Z,100453.46
2017-06-05T10:41:00.216Z,100451.12
2017-06-05T10:43:30.108Z,100449.64
2017-06-05T10:45:59.945Z,100450.64
2017-06-05T10:48:29.916Z,100450.15
2017-06-05T10:50:59.782Z,100452.74
2017-06-05T10:53:29.666Z,100448.13
2017-06-05T10:55:59.522Z,100439.14
2017-06-05T10:58:29.401Z,100432.86
2017-06-05T11:00:59.244Z,100433.77
2017-06-05T11:03:29.153Z,100428.40
2017-06-05T11:05:58.985Z,100432.91
2017-06-05T11:08:28.836Z,100425.95
2017-06-05T11:10:58.728Z,100425.03
2017-06-05T11:13:28.574Z,100425.62
2017-06-05T11:15:58.436Z,100421.95
2017-06-05T11:18:28.291Z,100426.34
2017-06-05T11:20:58.155Z,100426.35
2017-06-05T11:23:28.006Z,100412.83
2017-06-05T11:25:57.877Z,100412.44
2017-06-05T11:28:27.708Z,100407.66
2017-06-05T11:30:59.187Z,100408.55
2017-06-05T11:33:29.025Z,100403.64
2017-06-05T11:35:58.938Z,100396.69
2017-06-05T11:38:28.817Z,100402.89
2017-06-05T11:40:58.662Z,100399.20
2017-06-05T11:43:29.497Z,100398.42
2017-06-05T11:45:59.339Z,100393.56
2017-06-05T11:48:29.200Z,100394.92
2017-06-05T11:50:59.038Z,100389.22
2017-06-05T11:53:28.924Z,100391.41
2017-06-05T11:55:58.785Z,100391.00
2017-06-05T11:58:28.653Z,100383.34
2017-06-05T12:00:58.489Z,100379.45
2017-06-05T12:03:28.365Z,100379.03
2017-06-05T12:05:58.193Z,100382.34
2017-06-05T12:08:28.048Z,100372.06
2017-06-05T12:10:57.888Z,100366.23
2017-06-05T12:13:27.737Z,100372.29
2017-06-05T12:15:57.588Z,100357.91
2017-06-05T12:18:27.452Z,100360.11
2017-06-05T12:20:57.285Z,100365.26
2017-06-05T12:23:27.186Z,100352.72
2017-06-05T12:25:57.038Z,100340.52
2017-06-05T12:28:26.874Z,100345.31
2017-06-05T12:30:56.731Z,100345.24
2017-06-05T12:33:26.584Z,100338.79
2017-06-05T12:35:56.491Z,100333.33
2017-06-05T12:38:26.329Z,100334.25
2017-06-05T12:40:56.215Z,100327.63
2017-06-05T12:43:26.067Z,100324.17
2017-06-05T12:45:55.963Z,100322.79
2017-06-05T12:48:25.809Z,100318.50
2017-06-05T12:50:55.683Z,100316.36
2017-06-05T12:53:25.522Z,100314.84
2017-06-05T12:55:55.415Z,100312.78
2017-06-05T12:58:25.246Z,100320.67
2017-06-05T13:00:55.107Z,100316.23
2017-06-05T13:03:24.951Z,100311.39
2017-06-05T13:05:54.835Z,100312.66
2017-06-05T13:08:24.701Z,100310.81
2017-06-05T13:10:54.586Z,100303.38
2017-06-05T13:13:24.427Z,100297.87
2017-06-05T13:15:54.302Z,100289.31
2017-06-05T13:18:24.152Z,100291.25
2017-06-05T13:20:54.054Z,100285.63
2017-06-05T13:23:23.896Z,100282.34
2017-06-05T13:25:53.785Z,100282.53
2017-06-05T13:28:23.707Z,100279.31
2017-06-05T13:30:53.588Z,100284.50
2017-06-05T13:33:23.468Z,100270.51
2017-06-05T13:35:53.303Z,100274.81
2017-06-05T13:38:23.171Z,100269.75
2017-06-05T13:40:53.041Z,100274.39
2017-06-05T13:43:23.315Z,100280.30
2017-06-05T13:45:52.973Z,100279.81
2017-06-05T13:48:22.856Z,100272.23
2017-06-05T13:50:52.697Z,100282.38
2017-06-05T13:53:22.563Z,100280.02
2017-06-05T13:55:52.424Z,100280.02
2017-06-05T13:58:22.333Z,100274.17
2017-06-05T14:00:52.213Z,100273.95
2017-06-05T14:03:22.132Z,100278.36
2017-06-05T14:05:51.994Z,100280.83
2017-06-05T14:08:21.883Z,100281.52
2017-06-05T14:10:54.618Z,100295.36
2017-06-05T14:13:25.298Z,100300.80
2017-06-05T14:15:56.009Z,100321.77
2017-06-05T14:18:25.914Z,100324.84
2017-06-05T14:20:55.775Z,100324.66
2017-06-05T14:23:25.621Z,100315.91
2017-06-05T14:25:55.504Z,100317.37
2017-06-05T14:28:25.347Z,100330.95
2017-06-05T14:30:55.214Z,100333.62
2017-06-05T14:33:25.044Z,100339.95
2017-06-05T14:35:54.900Z,100337.30
2017-06-05T14:38:24.740Z,100334.23
2017-06-05T14:40:54.609Z,100337.85
2017-06-05T14:43:24.444Z,100343.48
2017-06-05T14:45:54.378Z,100340.42
2017-06-05T14:48:24.251Z,100339.14
2017-06-05T14:50:54.087Z,100335.66
2017-06-05T14:53:23.953Z,100332.58
2017-06-05T14:55:53.812Z,100332.27
2017-06-05T14:58:23.718Z,100329.11
2017-06-05T15:00:53.554Z,100323.85
2017-06-05T15:03:23.423Z,100323.69
2017-06-05T15:05:53.255Z,100315.28
2017-06-05T15:08:23.125Z,100305.40
2017-06-05T15:10:52.959Z,100297.61
2017-06-05T15:13:22.847Z,100295.34
2017-06-05T15:15:52.698Z,100298.31
2017-06-05T15:18:25.078Z,100298.31
2017-06-05T15:20:54.934Z,100302.40
2017-06-05T15:23:24.824Z,100300.34
2017-06-05T15:25:54.686Z,100293.84
2017-06-05T15:28:24.620Z,100286.45
2017-06-05T15:30:54.520Z,100282.41
2017-06-05T15:33:24.356Z,100274.90
2017-06-05T15:35:54.278Z,100269.34
2017-06-05T15:38:24.138Z,100263.83
2017-06-05T15:40:53.989Z,100260.95
2017-06-05T15:43:23.859Z,100265.84
2017-06-05T15:45:53.693Z,100276.38
2017-06-05T15:48:23.672Z,100262.50
2017-06-05T15:50:53.501Z,100255.12
2017-06-05T15:53:23.421Z,100259.59
2017-06-05T15:55:53.470Z,100256.53
2017-06-05T15:58:23.370Z,100250.84
2017-06-05T16:00:54.246Z,100248.69
2017-06-05T16:03:24.133Z,100242.60
2017-06-05T16:05:54.006Z,100247.98
2017-06-05T16:08:23.871Z,100240.16
2017-06-05T16:10:56.647Z,100236.77
2017-06-05T16:13:26.509Z,100230.81
2017-06-05T16:15:56.374Z,100228.27
2017-06-05T16:18:26.208Z,100225.23
2017-06-05T16:20:56.075Z,100229.38
2017-06-05T16:23:25.403Z,100212.34
2017-06-05T16:25:55.287Z,100212.52
2017-06-05T16:28:25.118Z,100211.17
2017-06-05T16:30:54.986Z,100205.31
2017-06-05T16:33:24.514Z,100201.38
2017-06-05T16:35:54.358Z,100201.70
2017-06-05T16:38:24.254Z,100216.52
2017-06-05T16:40:54.096Z,100224.10
2017-06-05T16:43:24.247Z,100220.64
2017-06-05T16:45:55.849Z,100230.07
2017-06-05T16:48:25.737Z,100226.95
2017-06-05T16:50:55.597Z,100235.16
2017-06-05T16:53:25.494Z,100244.76
2017-06-05T16:55:55.482Z,100243.28
2017-06-05T16:58:25.325Z,100250.50
2017-06-05T17:00:55.181Z,100243.11
2017-06-05T17:03:25.026Z,100243.36
2017-06-05T17:05:54.898Z,100246.34
2017-06-05T17:08:25.735Z,100249.70
2017-06-05T17:10:55.609Z,100243.67
2017-06-05T17:13:25.449Z,100244.16
2017-06-05T17:15:55.352Z,100234.88
2017-06-05T17:18:25.190Z,100233.59
2017-06-05T17:20:55.037Z,100237.16
2017-06-05T17:23:24.894Z,100230.80
2017-06-05T17:25:54.738Z,100237.75
2017-06-05T17:28:24.638Z,100236.11
2017-06-05T17:30:54.479Z,100227.80
2017-06-05T17:33:24.362Z,100229.09
2017-06-05T17:35:54.202Z,100222.84
2017-06-05T17:38:24.107Z,100215.51
2017-06-05T17:40:53.951Z,100208.06
2017-06-05T17:43:23.808Z,100205.04
2017-06-05T17:45:53.482Z,100204.73
2017-06-05T17:48:23.315Z,100210.64
2017-06-05T17:50:53.637Z,100209.34
2017-06-05T17:53:26.760Z,100210.78
2017-06-05T17:55:56.672Z,100209.66
2017-06-05T17:58:26.530Z,100205.41
2017-06-05T18:00:56.374Z,100204.47
2017-06-05T18:03:26.312Z,100204.78
2017-06-05T18:05:56.505Z,100203.17
2017-06-05T18:08:26.520Z,100204.19
2017-06-05T18:10:56.379Z,100203.14
2017-06-05T18:13:26.292Z,100201.70
2017-06-05T18:15:56.125Z,100203.30
2017-06-05T18:18:26.023Z,100202.40
2017-06-05T18:20:55.855Z,100199.29
2017-06-05T18:23:25.795Z,100194.34
2017-06-05T18:25:55.665Z,100195.19
2017-06-05T18:28:25.505Z,100186.25
2017-06-05T18:30:55.410Z,100179.96
2017-06-05T18:33:25.247Z,100184.32
2017-06-05T18:35:55.129Z,100181.55
2017-06-05T18:38:24.976Z,100177.10
2017-06-05T18:40:54.816Z,100181.00
2017-06-05T18:43:24.743Z,100177.21
2017-06-05T18:45:54.601Z,100179.64
2017-06-05T18:48:24.563Z,100180.63
2017-06-05T18:50:54.407Z,100181.22
2017-06-05T18:53:25.298Z,100182.26
2017-06-05T18:55:55.554Z,100178.04
2017-06-05T18:58:25.432Z,100182.01
2017-06-05T19:00:55.271Z,100187.52
2017-06-05T19:03:25.108Z,100181.72
2017-06-05T19:05:54.981Z,100186.13
2017-06-05T19:08:24.826Z,100188.73
2017-06-05T19:10:54.695Z,100192.22
2017-06-05T19:13:24.527Z,100190.55
2017-06-05T19:15:54.413Z,100182.50
2017-06-05T19:18:24.252Z,100177.27
2017-06-05T19:20:54.102Z,100178.93
2017-06-05T19:23:23.966Z,100175.16
2017-06-05T19:25:53.796Z,100178.24
2017-06-05T19:28:23.676Z,100182.94
2017-06-05T19:30:53.545Z,100180.53
2017-06-05T19:33:23.411Z,100173.95
2017-06-05T19:35:53.254Z,100175.41
2017-06-05T19:38:23.231Z,100178.70
2017-06-05T19:40:53.102Z,100183.06
2017-06-05T19:43:22.938Z,100182.17
2017-06-05T19:45:52.829Z,100185.06
2017-06-05T19:48:22.657Z,100187.28
2017-06-05T19:50:52.519Z,100183.03
2017-06-05T19:53:22.363Z,100182.85
2017-06-05T19:55:52.247Z,100185.03
2017-06-05T19:58:22.128Z,100192.23
2017-06-05T20:00:52.014Z,100177.96
2017-06-05T20:03:21.917Z,100180.91
2017-06-05T20:05:51.781Z,100181.96
2017-06-05T20:08:21.711Z,100180.38
2017-06-05T20:10:51.578Z,100175.38
2017-06-05T20:13:21.458Z,100168.12
2017-06-05T20:15:51.426Z,100171.69
2017-06-05T20:18:21.309Z,100167.09
2017-06-05T20:20:51.216Z,100165.11
2017-06-05T20:23:21.059Z,100160.93
2017-06-05T20:25:50.951Z,100162.70
2017-06-05T20:28:20.799Z,100158.59
2017-06-05T20:30:50.742Z,100155.41
2017-06-05T20:33:21.563Z,100149.48
2017-06-05T20:35:51.475Z,100151.89
2017-06-05T20:38:21.323Z,100149.25
2017-06-05T20:40:50.986Z,100146.20
2017-06-05T20:43:20.841Z,100144.41
2017-06-05T20:45:50.731Z,100144.77
2017-06-05T20:48:20.632Z,100140.23
2017-06-05T20:50:50.583Z,100137.70
2017-06-05T20:53:20.466Z,100142.67
2017-06-05T20:55:50.314Z,100133.48
2017-06-05T20:58:20.189Z,100131.36
2017-06-05T21:00:50.050Z,100135.24
2017-06-05T21:03:19.932Z,100132.77
2017-06-05T21:05:49.774Z,100133.41
2017-06-05T21:08:19.657Z,100128.34
2017-06-05T21:10:49.577Z,100126.11
2017-06-05T21:13:19.441Z,100123.45
2017-06-05T21:15:49.270Z,100118.91
2017-06-05T21:18:19.153Z,100118.81
2017-06-05T21:20:48.993Z,100120.57
2017-06-05T21:23:18.885Z,100123.88
2017-06-05T21:25:48.762Z,100114.22
2017-06-05T21:28:18.646Z,100109.75
2017-06-05T21:30:48.508Z,100110.47
2017-06-05T21:33:18.479Z,100111.75
2017-06-05T21:35:48.335Z,100105.97
2017-06-05T21:38:18.205Z,100108.48
2017-06-05T21:40:48.075Z,100100.47
2017-06-05T21:43:17.915Z,100098.48
2017-06-05T21:45:48.766Z,100097.83
2017-06-05T21:48:18.725Z,100093.28
2017-06-05T21:50:48.643Z,100094.47
2017-06-05T21:53:18.490Z,100086.89
2017-06-05T21:55:48.349Z,100083.81
2017-06-05T21:58:18.203Z,100084.11
2017-06-05T22:00:48.066Z,100082.59
2017-06-05T22:03:18.010Z,100072.27
2017-06-05T22:05:47.899Z,100077.53
2017-06-05T22:08:17.766Z,100074.64
2017-06-05T22:10:47.604Z,100074.31
2017-06-05T22:13:17.467Z,100075.64
2017-06-05T22:15:47.311Z,100070.28
2017-06-05T22:18:17.178Z,100065.97
2017-06-05T22:20:47.049Z,100067.87
2017-06-05T22:23:16.947Z,100055.94
2017-06-05T22:25:46.803Z,100060.45
2017-06-05T22:28:16.662Z,100058.03
2017-06-05T22:30:46.503Z,100055.70
2017-06-05T22:33:16.402Z,100053.05
2017-06-05T22:35:46.245Z,100042.38
2017-06-05T22:38:16.107Z,100041.81
2017-06-05T22:40:45.953Z,100029.69
2017-06-05T22:43:15.828Z,100028.00
2017-06-05T22:45:45.684Z,100028.14
2017-06-05T22:48:15.586Z,100023.44
2017-06-05T22:50:45.428Z,100022.11
2017-06-05T22:53:15.270Z,100024.00
2017-06-05T22:55:45.121Z,100022.48
2017-06-05T22:58:14.958Z,100023.33
2017-06-05T23:00:44.853Z,100014.95
2017-06-05T23:03:14.807Z,100011.45
2017-06-05T23:05:44.702Z,100012.55
2017-06-05T23:08:14.539Z,100004.61
2017-06-05T23:10:44.451Z,99997.80
2017-06-05T23:13:14.339Z,100006.92
2017-06-05T23:15:44.193Z,100000.39
2017-06-05T23:18:14.084Z,99992.68
2017-06-05T23:20:43.969Z,99990.77
2017-06-05T23:23:13.793Z,99987.09
2017-06-05T23:25:43.718Z,99992.50
2017-06-05T23:28:13.561Z,99985.36
2017-06-05T23:30:43.462Z,99980.44
2017-06-05T23:33:13.286Z,99977.86
2017-06-05T23:35:43.216Z,99970.64
2017-06-05T23:38:13.057Z,99976.19
2017-06-05T23:40:42.925Z,99971.45
2017-06-05T23:43:12.785Z,99965.59
2017-06-05T23:45:42.645Z,99963.23
2017-06-05T23:48:12.554Z,99954.05
2017-06-05T23:50:42.420Z,99947.56
2017-06-05T23:53:12.277Z,99952.88
2017-06-05T23:55:42.114Z,99942.23
2017-06-05T23:58:11.984Z,99938.02
